Terminal Aerodrome Forecast
Issued by NWS Wilmington, NC

Home | Current Version | Previous Version | Text Only | Print | Product List | Glossary On
Versions: 1 2 3 4 5 6 7 8 9 10 11 12 13
000
FTUS42 KILM 201100
TAFILM
TAF
KILM 201136Z 2012/2112 04007KT 6SM -RA SCT050 OVC080
      TEMPO 2014/2017 5SM RA SCT020 BKN050
     FM201700 03006KT 4SM -RA BKN020 OVC040
     FM201900 03006KT 4SM -RA BR SCT006 BKN012 OVC020
     FM202200 06006KT 3SM BR BKN006 BKN020 OVC050
     FM211000 01006KT 4SM BR SCT006 SCT020 BKN050=

USA.gov is the U.S. government's official web portal to all federal, state and local government web resources and services.